createdAt,value
2023-03-16T00:00:14.055Z,3.50
2023-03-16T00:02:22.744Z,3.73
2023-03-16T00:04:31.594Z,3.07
2023-03-16T00:06:40.208Z,3.77
2023-03-16T00:08:48.693Z,3.67
2023-03-16T00:10:58.774Z,3.00
2023-03-16T00:13:07.556Z,3.10
2023-03-16T00:15:16.322Z,1.70
2023-03-16T00:17:26.856Z,1.37
2023-03-16T00:19:35.569Z,2.17
2023-03-16T00:21:44.114Z,2.73
2023-03-16T00:23:53.573Z,2.60
2023-03-16T00:26:04.709Z,2.20
2023-03-16T00:28:14.219Z,1.77
2023-03-16T00:30:22.976Z,2.53
2023-03-16T00:32:32.425Z,2.30
2023-03-16T00:34:41.037Z,1.80
2023-03-16T00:36:49.560Z,2.10
2023-03-16T00:38:58.319Z,2.47
2023-03-16T00:41:09.624Z,2.30
2023-03-16T00:43:18.950Z,1.90
2023-03-16T00:45:27.633Z,2.10
2023-03-16T00:47:36.401Z,2.30
2023-03-16T00:49:46.112Z,2.13
2023-03-16T00:51:54.800Z,1.80
2023-03-16T00:54:05.151Z,1.80
2023-03-16T00:56:15.300Z,2.30
2023-03-16T00:58:24.730Z,1.53
2023-03-16T01:00:34.055Z,2.00
2023-03-16T01:02:42.630Z,2.30
2023-03-16T01:04:51.888Z,2.23
2023-03-16T01:07:00.624Z,2.03
2023-03-16T01:09:09.758Z,1.97
2023-03-16T01:11:21.222Z,2.07
2023-03-16T01:13:29.827Z,2.17
2023-03-16T01:15:38.318Z,1.97
2023-03-16T01:17:46.888Z,2.23
2023-03-16T01:19:55.774Z,2.33
2023-03-16T01:22:05.031Z,1.70
2023-03-16T01:24:14.104Z,1.50
2023-03-16T01:26:25.371Z,2.17
2023-03-16T01:28:34.502Z,1.60
2023-03-16T01:30:45.316Z,1.80
2023-03-16T01:32:53.940Z,1.70
2023-03-16T01:35:02.654Z,1.67
2023-03-16T01:37:11.473Z,2.00
2023-03-16T01:39:20.127Z,1.80
2023-03-16T01:41:30.141Z,0.90
2023-03-16T01:43:39.881Z,1.23
2023-03-16T01:46:18.204Z,1.27
2023-03-16T01:48:27.633Z,1.80
2023-03-16T01:50:36.148Z,1.27
2023-03-16T01:52:44.662Z,1.30
2023-03-16T01:54:54.538Z,1.13
2023-03-16T01:57:07.677Z,1.50
2023-03-16T01:59:17.587Z,1.57
2023-03-16T02:01:26.782Z,1.63
2023-03-16T02:03:35.743Z,1.60
2023-03-16T02:05:46.707Z,1.63
2023-03-16T02:08:00.365Z,1.37
2023-03-16T02:10:09.772Z,1.53
2023-03-16T02:12:21.216Z,1.13
2023-03-16T02:14:30.370Z,1.60
2023-03-16T02:16:41.496Z,1.10
2023-03-16T02:18:51.036Z,0.87
2023-03-16T02:21:05.657Z,1.13
2023-03-16T02:23:18.567Z,1.10
2023-03-16T02:25:30.365Z,1.50
2023-03-16T02:27:43.187Z,1.60
2023-03-16T02:30:06.702Z,1.70
2023-03-16T02:32:17.772Z,1.80
2023-03-16T02:34:27.451Z,1.37
2023-03-16T02:36:37.863Z,1.23
2023-03-16T02:38:46.940Z,1.13
2023-03-16T02:40:59.767Z,1.40
2023-03-16T02:43:10.049Z,1.27
2023-03-16T02:45:18.949Z,1.20
2023-03-16T02:47:32.461Z,1.23
2023-03-16T02:49:42.745Z,1.40
2023-03-16T02:51:51.809Z,1.20
2023-03-16T02:54:00.733Z,1.00
2023-03-16T02:56:09.987Z,0.97
2023-03-16T02:58:19.188Z,0.60
2023-03-16T03:00:30.102Z,0.83
2023-03-16T03:02:40.389Z,0.90
2023-03-16T03:04:49.073Z,0.70
2023-03-16T03:07:04.512Z,1.17
2023-03-16T03:09:13.567Z,1.07
2023-03-16T03:11:22.514Z,0.90
2023-03-16T03:13:31.752Z,0.90
2023-03-16T03:15:40.610Z,1.07
2023-03-16T03:17:50.881Z,0.60
2023-03-16T03:19:59.801Z,0.73
2023-03-16T03:22:08.892Z,0.73
2023-03-16T03:24:18.221Z,1.10
2023-03-16T03:26:27.193Z,0.90
2023-03-16T03:28:35.971Z,0.73
2023-03-16T03:30:44.975Z,0.70
2023-03-16T03:32:55.736Z,0.87
2023-03-16T03:35:04.290Z,0.70
2023-03-16T03:37:13.083Z,0.90
2023-03-16T03:39:21.912Z,0.80
2023-03-16T03:41:30.829Z,0.77
2023-03-16T03:43:39.465Z,1.07
2023-03-16T03:45:48.838Z,1.07
2023-03-16T03:47:59.274Z,0.70
2023-03-16T03:50:09.183Z,0.80
2023-03-16T03:52:17.835Z,0.90
2023-03-16T03:54:27.291Z,1.07
2023-03-16T03:56:36.019Z,0.80
2023-03-16T03:58:44.941Z,0.97
2023-03-16T04:00:54.303Z,0.87
2023-03-16T04:03:05.519Z,0.60
2023-03-16T04:05:14.636Z,1.00
2023-03-16T04:07:23.413Z,1.00
2023-03-16T04:09:34.021Z,0.80
2023-03-16T04:11:43.340Z,0.80
2023-03-16T04:13:54.158Z,0.80
2023-03-16T04:16:03.931Z,0.73
2023-03-16T04:18:14.525Z,0.50
2023-03-16T04:20:24.068Z,0.50
2023-03-16T04:22:32.788Z,0.53
2023-03-16T04:24:43.430Z,0.80
2023-03-16T04:26:54.764Z,0.80
2023-03-16T04:29:04.072Z,0.93
2023-03-16T04:31:13.136Z,0.80
2023-03-16T04:33:23.981Z,0.77
2023-03-16T04:35:33.538Z,0.60
2023-03-16T04:37:42.342Z,0.70
2023-03-16T04:39:50.904Z,1.03
2023-03-16T04:41:59.629Z,0.87
2023-03-16T04:44:09.017Z,0.80
2023-03-16T04:46:17.716Z,0.93
2023-03-16T04:48:27.775Z,1.03
2023-03-16T04:50:37.015Z,0.90
2023-03-16T04:52:45.636Z,1.53
2023-03-16T04:54:54.750Z,1.00
2023-03-16T04:57:05.214Z,0.90
2023-03-16T04:59:13.950Z,1.10
2023-03-16T05:01:23.015Z,0.87
2023-03-16T05:03:35.930Z,0.97
2023-03-16T05:05:45.707Z,1.00
2023-03-16T05:07:54.660Z,0.80
2023-03-16T05:10:03.651Z,0.90
2023-03-16T05:12:12.867Z,0.80
2023-03-16T05:14:21.899Z,0.97
2023-03-16T05:16:31.326Z,1.17
2023-03-16T05:18:41.951Z,1.00
2023-03-16T05:20:52.614Z,1.10
2023-03-16T05:23:01.644Z,1.30
2023-03-16T05:25:15.114Z,1.93
2023-03-16T05:27:24.475Z,1.30
2023-03-16T05:29:34.491Z,1.60
2023-03-16T05:31:46.852Z,1.23
2023-03-16T05:33:57.956Z,1.80
2023-03-16T05:36:07.207Z,1.50
2023-03-16T05:38:16.170Z,1.40
2023-03-16T05:40:25.036Z,1.83
2023-03-16T05:42:35.260Z,1.43
2023-03-16T05:44:45.018Z,1.77
2023-03-16T05:46:54.357Z,1.27
2023-03-16T05:49:04.796Z,1.57
2023-03-16T05:51:14.575Z,1.40
2023-03-16T05:53:29.086Z,1.33
2023-03-16T05:55:37.983Z,2.10
2023-03-16T05:57:47.531Z,1.57
2023-03-16T05:59:56.500Z,1.87
2023-03-16T06:02:05.187Z,1.30
2023-03-16T06:04:15.720Z,1.57
2023-03-16T06:06:24.796Z,1.43
2023-03-16T06:08:33.825Z,1.40
2023-03-16T06:10:42.547Z,1.63
2023-03-16T06:12:51.642Z,1.90
2023-03-16T06:15:00.992Z,1.40
2023-03-16T06:17:09.726Z,1.77
2023-03-16T06:19:20.056Z,1.50
2023-03-16T06:21:29.113Z,1.80
2023-03-16T06:23:38.242Z,2.10
2023-03-16T06:25:49.040Z,1.70
2023-03-16T06:27:57.810Z,1.90
2023-03-16T06:30:07.265Z,1.20
2023-03-16T06:32:16.639Z,1.10
2023-03-16T06:34:26.594Z,2.03
2023-03-16T06:36:35.852Z,1.00
2023-03-16T06:38:44.575Z,1.23
2023-03-16T06:40:56.241Z,1.43
2023-03-16T06:43:05.576Z,1.50
2023-03-16T06:45:15.481Z,1.20
2023-03-16T06:47:24.384Z,1.23
2023-03-16T06:49:35.360Z,1.33
2023-03-16T06:51:44.505Z,1.20
2023-03-16T06:53:53.752Z,1.00
2023-03-16T06:56:02.857Z,1.10
2023-03-16T06:58:11.977Z,0.90
2023-03-16T07:00:21.890Z,1.17
2023-03-16T07:02:30.674Z,0.70
2023-03-16T07:04:40.982Z,0.57
2023-03-16T07:06:50.484Z,0.90
2023-03-16T07:09:01.486Z,0.80
2023-03-16T07:11:10.345Z,0.73
2023-03-16T07:13:19.147Z,1.00
2023-03-16T07:15:28.088Z,0.93
2023-03-16T07:17:37.113Z,1.10
2023-03-16T07:19:47.288Z,1.10
2023-03-16T07:21:56.165Z,0.87
2023-03-16T07:24:05.398Z,1.03
2023-03-16T07:26:14.403Z,0.70
2023-03-16T07:28:23.510Z,0.87
2023-03-16T07:30:32.241Z,0.60
2023-03-16T07:32:42.124Z,0.90
2023-03-16T07:34:52.518Z,1.00
2023-03-16T07:37:02.828Z,1.20
2023-03-16T07:39:14.666Z,0.90
2023-03-16T07:41:23.696Z,1.10
2023-03-16T07:43:32.415Z,1.07
2023-03-16T07:45:41.724Z,1.23
2023-03-16T07:47:51.302Z,0.90
2023-03-16T07:50:01.512Z,1.00
2023-03-16T07:52:10.639Z,0.90
2023-03-16T07:54:19.440Z,1.30
2023-03-16T07:56:36.167Z,1.37
2023-03-16T07:58:51.541Z,0.97
2023-03-16T08:01:00.766Z,0.90
2023-03-16T08:03:12.698Z,0.93
2023-03-16T08:05:22.764Z,0.87
2023-03-16T08:07:32.394Z,2.40
2023-03-16T08:09:41.598Z,1.13
2023-03-16T08:11:50.307Z,1.30
2023-03-16T08:13:59.389Z,1.00
2023-03-16T08:16:10.538Z,1.00
2023-03-16T08:18:19.880Z,1.17
2023-03-16T08:20:31.070Z,1.10
2023-03-16T08:22:39.994Z,0.90
2023-03-16T08:24:49.548Z,1.13
2023-03-16T08:26:59.290Z,0.97
2023-03-16T08:29:08.396Z,1.10
2023-03-16T08:31:18.157Z,1.40
2023-03-16T08:33:28.291Z,1.37
2023-03-16T08:35:38.942Z,0.87
2023-03-16T08:37:47.631Z,1.00
2023-03-16T08:39:56.816Z,1.00
2023-03-16T08:42:05.497Z,1.20
2023-03-16T08:44:14.331Z,1.07
2023-03-16T08:46:24.608Z,2.53
2023-03-16T08:48:33.476Z,1.53
2023-03-16T08:50:44.547Z,1.37
2023-03-16T08:52:53.871Z,1.10
2023-03-16T08:55:05.037Z,1.10
2023-03-16T08:57:13.814Z,1.07
2023-03-16T08:59:29.696Z,1.10
2023-03-16T09:01:40.764Z,0.80
2023-03-16T09:03:49.814Z,1.07
2023-03-16T09:06:04.481Z,1.33
2023-03-16T09:08:13.825Z,1.60
2023-03-16T09:10:23.326Z,1.10
2023-03-16T09:12:32.530Z,1.30
2023-03-16T09:14:41.213Z,0.90
2023-03-16T09:16:50.109Z,0.90
2023-03-16T09:18:58.899Z,1.20
2023-03-16T09:21:10.795Z,1.20
2023-03-16T09:23:21.088Z,1.10
2023-03-16T09:25:31.090Z,1.10
2023-03-16T09:27:41.550Z,1.40
2023-03-16T09:29:53.182Z,0.80
2023-03-16T09:32:02.080Z,1.10
2023-03-16T09:34:11.833Z,0.90
2023-03-16T09:36:22.517Z,0.90
2023-03-16T09:38:32.985Z,1.10
2023-03-16T09:40:42.337Z,1.30
2023-03-16T09:42:55.363Z,1.00
2023-03-16T09:45:11.144Z,1.13
2023-03-16T09:47:24.319Z,1.10
2023-03-16T09:49:37.306Z,1.10
2023-03-16T09:51:50.934Z,1.00
2023-03-16T09:54:01.842Z,1.10
2023-03-16T09:56:12.455Z,1.00
2023-03-16T09:58:22.631Z,0.70
2023-03-16T10:00:33.093Z,1.10
2023-03-16T10:02:47.831Z,0.90
2023-03-16T10:05:00.525Z,1.00
2023-03-16T10:07:21.249Z,1.10
2023-03-16T10:09:35.097Z,0.97
2023-03-16T10:11:44.670Z,1.13
2023-03-16T10:13:56.572Z,1.13
2023-03-16T10:16:07.942Z,1.07
2023-03-16T10:18:19.524Z,1.20
2023-03-16T10:20:33.098Z,1.00
2023-03-16T10:22:44.965Z,1.40
2023-03-16T10:24:58.528Z,1.13
2023-03-16T10:27:08.789Z,1.10
2023-03-16T10:29:17.895Z,0.80
2023-03-16T10:31:26.672Z,1.50
2023-03-16T10:33:36.950Z,1.00
2023-03-16T10:35:48.677Z,0.70
2023-03-16T10:37:59.588Z,0.83
2023-03-16T10:40:13.037Z,1.13
2023-03-16T10:42:22.649Z,0.93
2023-03-16T10:44:32.288Z,1.00
2023-03-16T10:46:42.167Z,0.87
2023-03-16T10:48:59.876Z,0.97
2023-03-16T10:51:11.090Z,1.00
2023-03-16T10:53:22.801Z,1.00
2023-03-16T10:55:35.257Z,1.00
2023-03-16T10:57:45.702Z,1.10
2023-03-16T10:59:55.231Z,0.90
2023-03-16T11:02:05.630Z,1.10
2023-03-16T11:04:15.781Z,1.10
2023-03-16T11:06:26.022Z,1.40
2023-03-16T11:08:38.922Z,1.27
2023-03-16T11:10:55.993Z,1.20
2023-03-16T11:13:08.811Z,1.37
2023-03-16T11:15:25.843Z,1.20
2023-03-16T11:17:39.912Z,1.30
2023-03-16T11:19:52.797Z,1.30
2023-03-16T11:22:04.014Z,1.50
2023-03-16T11:24:18.621Z,1.47
2023-03-16T11:26:29.642Z,1.50
2023-03-16T11:28:39.776Z,1.10
2023-03-16T11:30:52.201Z,1.50
2023-03-16T11:33:02.251Z,1.60
2023-03-16T11:35:18.532Z,1.30
2023-03-16T11:37:33.980Z,1.30
2023-03-16T11:39:50.643Z,1.50
2023-03-16T11:42:02.611Z,0.97
2023-03-16T11:44:14.707Z,1.30
2023-03-16T11:46:25.896Z,1.40
2023-03-16T11:48:38.399Z,1.30
2023-03-16T11:50:53.014Z,1.50
2023-03-16T11:53:05.268Z,1.50
2023-03-16T11:55:21.752Z,1.30
2023-03-16T11:57:33.891Z,1.50
2023-03-16T12:00:00.604Z,1.80
2023-03-16T12:02:23.187Z,1.40
2023-03-16T12:04:36.921Z,1.13
2023-03-16T12:06:52.532Z,1.70
2023-03-16T12:09:16.334Z,1.43
2023-03-16T12:11:29.216Z,1.20
2023-03-16T12:13:42.236Z,1.70
2023-03-16T12:15:52.178Z,1.20
2023-03-16T12:18:03.848Z,1.27
2023-03-16T12:20:17.336Z,1.43
2023-03-16T12:22:30.064Z,1.07
2023-03-16T12:24:42.806Z,1.10
2023-03-16T12:26:54.085Z,1.80
2023-03-16T12:29:06.122Z,1.33
2023-03-16T12:31:16.796Z,1.27
2023-03-16T12:33:31.598Z,1.57
2023-03-16T12:35:45.263Z,1.10
2023-03-16T12:37:58.858Z,1.27
2023-03-16T12:40:12.368Z,1.67
2023-03-16T12:42:35.961Z,1.10
2023-03-16T12:44:48.925Z,1.43
2023-03-16T12:47:00.421Z,1.27
2023-03-16T12:49:10.460Z,1.47
2023-03-16T12:51:19.108Z,1.40
2023-03-16T12:53:29.304Z,1.13
2023-03-16T12:55:47.281Z,1.30
2023-03-16T12:58:03.809Z,1.47
2023-03-16T13:00:13.991Z,1.40
2023-03-16T13:02:26.736Z,1.13
2023-03-16T13:04:37.883Z,1.63
2023-03-16T13:06:49.624Z,1.40
2023-03-16T13:08:59.952Z,1.10
2023-03-16T13:11:09.731Z,1.50
2023-03-16T13:13:25.693Z,1.30
2023-03-16T13:15:34.880Z,1.50
2023-03-16T13:17:43.876Z,1.57
2023-03-16T13:20:06.812Z,1.20
2023-03-16T13:22:23.073Z,1.00
2023-03-16T13:24:40.421Z,1.37
2023-03-16T13:26:50.848Z,1.20
2023-03-16T13:29:01.745Z,1.67
2023-03-16T13:31:22.308Z,1.10
2023-03-16T13:33:33.107Z,1.10
2023-03-16T13:35:43.294Z,0.90
2023-03-16T13:37:52.269Z,1.00
2023-03-16T13:40:01.829Z,1.20
2023-03-16T13:42:19.101Z,1.27
2023-03-16T13:44:30.394Z,1.10
2023-03-16T13:46:39.294Z,1.20
2023-03-16T13:48:49.624Z,1.10
2023-03-16T13:50:59.508Z,1.00
2023-03-16T13:53:13.239Z,1.60
2023-03-16T13:55:26.195Z,1.20
2023-03-16T13:57:38.319Z,1.17
2023-03-16T13:59:48.453Z,1.20
2023-03-16T14:01:59.925Z,1.10
2023-03-16T14:04:14.035Z,1.20
2023-03-16T14:06:25.373Z,1.10
2023-03-16T14:08:35.436Z,1.30
2023-03-16T14:10:45.642Z,0.97
2023-03-16T14:12:55.051Z,1.10
2023-03-16T14:15:07.774Z,1.20
2023-03-16T14:17:18.316Z,14.07
2023-03-16T14:19:35.933Z,1.10
2023-03-16T14:21:46.258Z,1.47
2023-03-16T14:23:56.617Z,1.10
2023-03-16T14:26:06.399Z,1.30
2023-03-16T14:28:16.818Z,1.23
2023-03-16T14:30:28.133Z,1.03
2023-03-16T14:32:36.750Z,1.17
2023-03-16T14:34:50.922Z,1.17
2023-03-16T14:37:09.689Z,1.30
2023-03-16T14:39:21.478Z,1.53
2023-03-16T14:41:31.674Z,1.20
2023-03-16T14:43:43.239Z,1.27
2023-03-16T14:45:54.154Z,1.23
2023-03-16T14:48:05.431Z,1.00
2023-03-16T14:50:17.498Z,1.10
2023-03-16T14:52:28.065Z,1.20
2023-03-16T14:54:37.486Z,1.07
2023-03-16T14:56:49.750Z,1.20
2023-03-16T14:58:58.786Z,1.40
2023-03-16T15:01:12.456Z,1.00
2023-03-16T15:03:22.433Z,1.10
2023-03-16T15:05:35.315Z,1.20
2023-03-16T15:07:45.751Z,0.77
2023-03-16T15:09:55.746Z,1.37
2023-03-16T15:12:04.573Z,0.77
2023-03-16T15:14:36.110Z,1.50
2023-03-16T15:16:46.154Z,1.10
2023-03-16T15:18:55.115Z,1.20
2023-03-16T15:21:04.093Z,1.10
2023-03-16T15:23:15.311Z,0.70
2023-03-16T15:25:26.634Z,0.90
2023-03-16T15:27:38.025Z,0.90
2023-03-16T15:29:46.955Z,1.10
2023-03-16T15:31:58.083Z,0.77
2023-03-16T15:34:07.471Z,1.20
2023-03-16T15:36:17.008Z,0.90
2023-03-16T15:38:27.039Z,1.10
2023-03-16T15:40:37.941Z,1.30
2023-03-16T15:42:47.171Z,1.20
2023-03-16T15:44:56.402Z,0.90
2023-03-16T15:47:06.488Z,1.00
2023-03-16T15:49:15.448Z,0.70
2023-03-16T15:51:26.010Z,0.90
2023-03-16T15:53:38.122Z,1.13
2023-03-16T15:55:47.631Z,0.60
2023-03-16T15:57:59.159Z,0.80
2023-03-16T16:00:10.946Z,1.00
2023-03-16T16:02:28.172Z,1.43
2023-03-16T16:04:37.194Z,0.80
2023-03-16T16:06:46.223Z,1.03
2023-03-16T16:08:54.914Z,0.97
2023-03-16T16:11:09.284Z,0.97
2023-03-16T16:13:20.038Z,0.80
2023-03-16T16:15:31.311Z,1.00
2023-03-16T16:17:54.049Z,1.73
2023-03-16T16:20:18.714Z,1.20
2023-03-16T16:22:27.437Z,1.30
2023-03-16T16:24:36.618Z,0.90
2023-03-16T16:26:53.319Z,1.10
2023-03-16T16:29:05.040Z,1.20
2023-03-16T16:31:14.530Z,1.10
2023-03-16T16:33:26.218Z,1.30
2023-03-16T16:35:35.413Z,3.30
2023-03-16T16:37:45.253Z,3.20
2023-03-16T16:39:54.099Z,2.77
2023-03-16T16:42:03.346Z,2.43
2023-03-16T16:44:17.353Z,2.67
2023-03-16T16:46:27.419Z,2.60
2023-03-16T16:48:39.009Z,1.80
2023-03-16T16:50:47.858Z,2.20
2023-03-16T16:52:57.592Z,2.17
2023-03-16T16:55:06.965Z,2.07
2023-03-16T16:57:20.329Z,1.77
2023-03-16T16:59:31.495Z,2.03
2023-03-16T17:01:41.058Z,1.60
2023-03-16T17:03:51.442Z,2.40
2023-03-16T17:06:01.661Z,2.83
2023-03-16T17:08:11.560Z,3.63
2023-03-16T17:10:22.608Z,3.50
2023-03-16T17:12:31.813Z,2.73
2023-03-16T17:14:40.469Z,3.40
2023-03-16T17:16:50.678Z,2.73
2023-03-16T17:19:01.453Z,3.13
2023-03-16T17:21:11.960Z,3.37
2023-03-16T17:23:26.768Z,3.93
2023-03-16T17:25:35.317Z,4.50
2023-03-16T17:27:44.594Z,3.20
2023-03-16T17:29:53.680Z,5.27
2023-03-16T17:32:03.889Z,5.00
2023-03-16T17:34:18.627Z,4.40
2023-03-16T17:36:27.810Z,3.30
2023-03-16T17:38:36.341Z,4.30
2023-03-16T17:40:45.899Z,3.40
2023-03-16T17:42:55.714Z,3.37
2023-03-16T17:45:05.057Z,4.23
2023-03-16T17:47:18.100Z,5.27
2023-03-16T17:49:30.718Z,5.10
2023-03-16T17:51:40.512Z,5.93
2023-03-16T17:53:50.012Z,4.93
2023-03-16T17:55:59.324Z,6.13
2023-03-16T17:58:09.090Z,5.50
2023-03-16T18:00:24.022Z,5.93
2023-03-16T18:02:38.463Z,8.80
2023-03-16T18:04:49.046Z,7.67
2023-03-16T18:06:58.510Z,9.70
2023-03-16T18:09:07.942Z,6.70
2023-03-16T18:11:18.599Z,6.10
2023-03-16T18:13:29.243Z,5.50
2023-03-16T18:15:38.017Z,5.83
2023-03-16T18:17:47.640Z,5.37
2023-03-16T18:19:59.286Z,4.80
2023-03-16T18:22:09.056Z,7.37
2023-03-16T18:24:19.754Z,5.83
2023-03-16T18:26:28.689Z,5.07
2023-03-16T18:28:37.609Z,5.33
2023-03-16T18:30:47.768Z,6.13
2023-03-16T18:32:57.734Z,4.70
2023-03-16T18:35:09.458Z,6.17
2023-03-16T18:37:19.225Z,6.23
2023-03-16T18:39:28.129Z,6.40
2023-03-16T18:41:37.755Z,6.40
2023-03-16T18:43:46.780Z,7.37
2023-03-16T18:45:56.055Z,6.40
2023-03-16T18:48:04.870Z,6.80
2023-03-16T18:50:20.074Z,6.93
2023-03-16T18:52:30.092Z,7.03
2023-03-16T18:54:39.270Z,7.53
2023-03-16T18:56:48.600Z,9.13
2023-03-16T18:58:58.255Z,8.07
2023-03-16T19:01:08.469Z,6.63
2023-03-16T19:03:21.674Z,6.10
2023-03-16T19:05:35.832Z,6.70
2023-03-16T19:07:45.763Z,5.97
2023-03-16T19:09:54.971Z,6.60
2023-03-16T19:12:05.494Z,7.47
2023-03-16T19:14:18.978Z,7.13
2023-03-16T19:16:28.373Z,7.30
2023-03-16T19:18:42.197Z,7.07
2023-03-16T19:20:53.488Z,7.90
2023-03-16T19:23:04.932Z,7.20
2023-03-16T19:25:19.219Z,7.30
2023-03-16T19:27:33.636Z,7.40
2023-03-16T19:29:42.346Z,7.73
2023-03-16T19:31:51.597Z,7.23
2023-03-16T19:34:00.628Z,7.50
2023-03-16T19:36:16.394Z,6.57
2023-03-16T19:38:27.163Z,6.97
2023-03-16T19:40:36.419Z,6.97
2023-03-16T19:42:45.874Z,7.73
2023-03-16T19:44:55.022Z,7.33
2023-03-16T19:47:04.977Z,7.80
2023-03-16T19:49:16.685Z,7.53
2023-03-16T19:51:29.219Z,7.27
2023-03-16T19:53:37.939Z,6.90
2023-03-16T19:55:48.168Z,7.27
2023-03-16T19:58:01.532Z,7.93
2023-03-16T20:00:17.892Z,7.87
2023-03-16T20:02:29.218Z,8.00
2023-03-16T20:04:38.349Z,7.20
2023-03-16T20:06:50.015Z,8.13
2023-03-16T20:08:59.299Z,7.63
2023-03-16T20:11:09.883Z,7.73
2023-03-16T20:13:19.617Z,7.83
2023-03-16T20:15:31.561Z,7.40
2023-03-16T20:17:40.661Z,7.60
2023-03-16T20:19:49.946Z,6.53
2023-03-16T20:22:00.780Z,7.40
2023-03-16T20:24:14.297Z,7.37
2023-03-16T20:26:24.436Z,6.80
2023-03-16T20:28:35.015Z,7.13
2023-03-16T20:30:43.754Z,7.40
2023-03-16T20:32:52.649Z,7.73
2023-03-16T20:35:01.666Z,8.07
2023-03-16T20:37:24.210Z,8.10
2023-03-16T20:39:33.215Z,7.73
2023-03-16T20:41:42.650Z,7.03
2023-03-16T20:43:51.982Z,7.30
2023-03-16T20:46:02.491Z,7.07
2023-03-16T20:48:16.227Z,6.83
2023-03-16T20:50:28.311Z,7.40
2023-03-16T20:52:38.873Z,6.80
2023-03-16T20:54:47.814Z,6.90
2023-03-16T20:56:57.070Z,7.30
2023-03-16T20:59:06.136Z,7.83
2023-03-16T21:01:17.941Z,7.70
2023-03-16T21:03:28.135Z,8.33
2023-03-16T21:05:37.566Z,8.30
2023-03-16T21:07:48.362Z,7.13
2023-03-16T21:09:57.688Z,8.13
2023-03-16T21:12:07.544Z,8.50
2023-03-16T21:14:18.482Z,9.30
2023-03-16T21:16:27.512Z,8.93
2023-03-16T21:18:38.502Z,9.33
2023-03-16T21:20:47.918Z,9.00
2023-03-16T21:22:58.644Z,9.93
2023-03-16T21:25:07.698Z,9.53
2023-03-16T21:27:20.129Z,9.10
2023-03-16T21:29:29.036Z,8.97
2023-03-16T21:31:38.260Z,9.57
2023-03-16T21:33:48.382Z,8.87
2023-03-16T21:35:57.497Z,8.87
2023-03-16T21:38:14.299Z,9.40
2023-03-16T21:40:24.610Z,8.53
2023-03-16T21:42:33.330Z,8.37
2023-03-16T21:44:42.580Z,7.63
2023-03-16T21:46:51.539Z,9.10
2023-03-16T21:49:00.473Z,9.97
2023-03-16T21:51:14.273Z,8.90
2023-03-16T21:53:25.705Z,8.23
2023-03-16T21:55:34.639Z,9.03
2023-03-16T21:57:44.050Z,9.83
2023-03-16T21:59:53.062Z,9.50
2023-03-16T22:02:02.596Z,9.60
2023-03-16T22:04:16.117Z,9.90
2023-03-16T22:06:28.121Z,10.23
2023-03-16T22:08:39.201Z,10.17
2023-03-16T22:10:48.527Z,9.77
2023-03-16T22:12:58.048Z,10.07
2023-03-16T22:15:07.372Z,10.50
2023-03-16T22:17:21.274Z,10.63
2023-03-16T22:19:30.298Z,10.17
2023-03-16T22:21:40.331Z,10.37
2023-03-16T22:23:50.744Z,9.83
2023-03-16T22:25:59.982Z,9.47
2023-03-16T22:28:12.886Z,10.60
2023-03-16T22:30:22.857Z,9.33
2023-03-16T22:32:31.797Z,9.10
2023-03-16T22:34:43.401Z,9.40
2023-03-16T22:36:52.495Z,9.13
2023-03-16T22:39:04.954Z,8.93
2023-03-16T22:41:15.051Z,9.17
2023-03-16T22:43:28.315Z,8.87
2023-03-16T22:45:37.248Z,9.27
2023-03-16T22:47:47.892Z,10.10
2023-03-16T22:49:56.986Z,9.73
2023-03-16T22:52:06.293Z,9.07
2023-03-16T22:54:19.894Z,8.93
2023-03-16T22:56:28.882Z,9.50
2023-03-16T22:58:39.537Z,9.27
2023-03-16T23:00:48.601Z,9.50
2023-03-16T23:02:57.833Z,7.93
2023-03-16T23:05:19.801Z,9.10
2023-03-16T23:07:28.503Z,8.90
2023-03-16T23:09:39.331Z,8.03
2023-03-16T23:11:49.388Z,8.07
2023-03-16T23:13:58.247Z,7.30
2023-03-16T23:16:07.994Z,6.73
2023-03-16T23:18:17.885Z,7.23
2023-03-16T23:20:29.125Z,6.27
2023-03-16T23:22:37.946Z,6.27
2023-03-16T23:24:48.223Z,6.07
2023-03-16T23:26:57.534Z,5.67
2023-03-16T23:29:06.178Z,5.60
2023-03-16T23:31:16.095Z,6.67
2023-03-16T23:33:24.930Z,5.73
2023-03-16T23:35:34.164Z,5.43
2023-03-16T23:37:43.132Z,6.17
2023-03-16T23:39:54.026Z,7.30
2023-03-16T23:42:02.598Z,7.17
2023-03-16T23:44:13.940Z,6.23
2023-03-16T23:46:24.563Z,6.40
2023-03-16T23:48:33.928Z,6.07
2023-03-16T23:50:43.486Z,6.80
2023-03-16T23:52:52.221Z,6.03
2023-03-16T23:55:02.646Z,6.57
2023-03-16T23:57:11.570Z,6.37
2023-03-16T23:59:20.950Z,6.50
